sensor_id;sensor_type;location;lat;lon;timestamp;pressure;altitude;pressure_sealevel;temperature;humidity
21902;BME280;11115;46.038;14.612;2024-02-21T00:01:46;99341.31;;;5.95;100.00
21902;BME280;11115;46.038;14.612;2024-02-21T00:04:15;99333.34;;;5.93;100.00
21902;BME280;11115;46.038;14.612;2024-02-21T00:06:49;99326.16;;;5.65;100.00
21902;BME280;11115;46.038;14.612;2024-02-21T00:09:20;99330.97;;;5.58;100.00
21902;BME280;11115;46.038;14.612;2024-02-21T00:11:55;99269.69;;;5.26;100.00
21902;BME280;11115;46.038;14.612;2024-02-21T00:14:33;99326.84;;;5.56;100.00
21902;BME280;11115;46.038;14.612;2024-02-21T00:17:03;99325.50;;;5.58;100.00
21902;BME280;11115;46.038;14.612;2024-02-21T00:19:35;99328.44;;;5.52;100.00
21902;BME280;11115;46.038;14.612;2024-02-21T00:22:13;99332.91;;;5.58;100.00
21902;BME280;11115;46.038;14.612;2024-02-21T00:24:53;99287.13;;;5.19;100.00
21902;BME280;11115;46.038;14.612;2024-02-21T00:27:24;99330.34;;;5.51;100.00
21902;BME280;11115;46.038;14.612;2024-02-21T00:30:03;99335.84;;;5.51;100.00
21902;BME280;11115;46.038;14.612;2024-02-21T00:32:40;99338.31;;;5.31;100.00
21902;BME280;11115;46.038;14.612;2024-02-21T00:35:21;99342.78;;;5.15;100.00
21902;BME280;11115;46.038;14.612;2024-02-21T00:38:03;99339.63;;;5.06;100.00
21902;BME280;11115;46.038;14.612;2024-02-21T00:40:34;99342.28;;;5.01;100.00
21902;BME280;11115;46.038;14.612;2024-02-21T00:43:06;99339.03;;;4.82;100.00
21902;BME280;11115;46.038;14.612;2024-02-21T00:45:38;99317.09;;;4.66;100.00
21902;BME280;11115;46.038;14.612;2024-02-21T00:48:14;99337.09;;;4.83;100.00
21902;BME280;11115;46.038;14.612;2024-02-21T00:50:55;99347.91;;;4.73;100.00
21902;BME280;11115;46.038;14.612;2024-02-21T00:53:28;99340.94;;;4.48;100.00
21902;BME280;11115;46.038;14.612;2024-02-21T00:56:05;99328.06;;;4.66;100.00
21902;BME280;11115;46.038;14.612;2024-02-21T00:58:37;99335.84;;;4.74;100.00
21902;BME280;11115;46.038;14.612;2024-02-21T01:01:25;99346.16;;;4.67;100.00
21902;BME280;11115;46.038;14.612;2024-02-21T01:04:06;99316.28;;;4.48;100.00
21902;BME280;11115;46.038;14.612;2024-02-21T01:06:40;99337.69;;;4.68;100.00
21902;BME280;11115;46.038;14.612;2024-02-21T01:09:12;99340.69;;;4.67;100.00
21902;BME280;11115;46.038;14.612;2024-02-21T01:11:48;99342.91;;;4.53;100.00
21902;BME280;11115;46.038;14.612;2024-02-21T01:14:23;99337.25;;;4.43;100.00
21902;BME280;11115;46.038;14.612;2024-02-21T01:16:55;99336.75;;;3.84;100.00
21902;BME280;11115;46.038;14.612;2024-02-21T01:19:33;99348.94;;;4.21;100.00
21902;BME280;11115;46.038;14.612;2024-02-21T01:22:06;99339.34;;;4.36;100.00
21902;BME280;11115;46.038;14.612;2024-02-21T01:24:38;99340.59;;;4.45;100.00
21902;BME280;11115;46.038;14.612;2024-02-21T01:27:09;99340.34;;;4.46;100.00
21902;BME280;11115;46.038;14.612;2024-02-21T01:29:45;99339.03;;;4.49;100.00
21902;BME280;11115;46.038;14.612;2024-02-21T01:32:24;99332.03;;;4.41;100.00
21902;BME280;11115;46.038;14.612;2024-02-21T01:34:57;99327.03;;;4.38;100.00
21902;BME280;11115;46.038;14.612;2024-02-21T01:37:30;99323.81;;;4.24;100.00
21902;BME280;11115;46.038;14.612;2024-02-21T01:40:04;99329.63;;;4.28;100.00
21902;BME280;11115;46.038;14.612;2024-02-21T01:42:39;99303.44;;;4.04;100.00
21902;BME280;11115;46.038;14.612;2024-02-21T01:45:12;99323.63;;;4.14;100.00
21902;BME280;11115;46.038;14.612;2024-02-21T01:47:48;99317.69;;;3.89;100.00
21902;BME280;11115;46.038;14.612;2024-02-21T01:50:26;99314.25;;;3.82;100.00
21902;BME280;11115;46.038;14.612;2024-02-21T01:53:13;99310.00;;;3.74;100.00
21902;BME280;11115;46.038;14.612;2024-02-21T01:55:51;99309.47;;;3.89;100.00
21902;BME280;11115;46.038;14.612;2024-02-21T01:58:32;99305.56;;;3.85;100.00
21902;BME280;11115;46.038;14.612;2024-02-21T02:01:10;99306.03;;;3.82;100.00
21902;BME280;11115;46.038;14.612;2024-02-21T02:03:50;99299.75;;;3.81;100.00
21902;BME280;11115;46.038;14.612;2024-02-21T02:06:25;99310.94;;;3.80;100.00
21902;BME280;11115;46.038;14.612;2024-02-21T02:08:54;99305.38;;;3.75;100.00
21902;BME280;11115;46.038;14.612;2024-02-21T02:11:32;99314.66;;;3.74;100.00
21902;BME280;11115;46.038;14.612;2024-02-21T02:14:09;99312.78;;;3.62;100.00
21902;BME280;11115;46.038;14.612;2024-02-21T02:16:51;99329.75;;;3.76;100.00
21902;BME280;11115;46.038;14.612;2024-02-21T02:19:25;99325.59;;;3.74;100.00
21902;BME280;11115;46.038;14.612;2024-02-21T02:22:09;99337.63;;;3.73;100.00
21902;BME280;11115;46.038;14.612;2024-02-21T02:24:44;99278.63;;;2.96;100.00
21902;BME280;11115;46.038;14.612;2024-02-21T02:27:16;99337.06;;;3.07;100.00
21902;BME280;11115;46.038;14.612;2024-02-21T02:30:05;99345.63;;;3.11;100.00
21902;BME280;11115;46.038;14.612;2024-02-21T02:32:54;99342.75;;;3.29;100.00
21902;BME280;11115;46.038;14.612;2024-02-21T02:35:42;99337.00;;;3.42;100.00
21902;BME280;11115;46.038;14.612;2024-02-21T02:38:29;99330.38;;;3.26;100.00
21902;BME280;11115;46.038;14.612;2024-02-21T02:41:17;99352.72;;;3.35;100.00
21902;BME280;11115;46.038;14.612;2024-02-21T02:44:04;99349.94;;;2.95;100.00
21902;BME280;11115;46.038;14.612;2024-02-21T02:46:51;99313.31;;;2.96;100.00
21902;BME280;11115;46.038;14.612;2024-02-21T02:49:52;99343.69;;;3.34;100.00
21902;BME280;11115;46.038;14.612;2024-02-21T02:52:43;99344.66;;;3.17;100.00
21902;BME280;11115;46.038;14.612;2024-02-21T02:55:32;99347.50;;;3.33;100.00
21902;BME280;11115;46.038;14.612;2024-02-21T02:58:05;99311.03;;;3.04;100.00
21902;BME280;11115;46.038;14.612;2024-02-21T03:00:37;99330.28;;;3.21;100.00
21902;BME280;11115;46.038;14.612;2024-02-21T03:03:24;99332.75;;;3.23;100.00
21902;BME280;11115;46.038;14.612;2024-02-21T03:06:06;99334.34;;;2.95;100.00
21902;BME280;11115;46.038;14.612;2024-02-21T03:08:36;99327.47;;;2.93;100.00
21902;BME280;11115;46.038;14.612;2024-02-21T03:11:11;99336.00;;;3.08;100.00
21902;BME280;11115;46.038;14.612;2024-02-21T03:13:43;99333.97;;;3.15;100.00
21902;BME280;11115;46.038;14.612;2024-02-21T03:16:13;99304.38;;;2.89;100.00
21902;BME280;11115;46.038;14.612;2024-02-21T03:18:51;99337.78;;;3.02;100.00
21902;BME280;11115;46.038;14.612;2024-02-21T03:21:29;99338.66;;;2.91;100.00
21902;BME280;11115;46.038;14.612;2024-02-21T03:24:01;99337.69;;;2.74;100.00
21902;BME280;11115;46.038;14.612;2024-02-21T03:26:35;99335.06;;;2.79;100.00
21902;BME280;11115;46.038;14.612;2024-02-21T03:29:10;99337.22;;;2.77;100.00
21902;BME280;11115;46.038;14.612;2024-02-21T03:31:45;99341.13;;;2.58;100.00
21902;BME280;11115;46.038;14.612;2024-02-21T03:34:14;99340.16;;;2.40;100.00
21902;BME280;11115;46.038;14.612;2024-02-21T03:36:42;99330.50;;;2.26;100.00
21902;BME280;11115;46.038;14.612;2024-02-21T03:39:13;99297.97;;;2.13;100.00
21902;BME280;11115;46.038;14.612;2024-02-21T03:41:43;99322.09;;;2.39;100.00
21902;BME280;11115;46.038;14.612;2024-02-21T03:44:13;99348.84;;;2.61;100.00
21902;BME280;11115;46.038;14.612;2024-02-21T03:46:47;99343.25;;;2.67;100.00
21902;BME280;11115;46.038;14.612;2024-02-21T03:49:24;99334.69;;;2.40;100.00
21902;BME280;11115;46.038;14.612;2024-02-21T03:51:55;99336.47;;;2.35;100.00
21902;BME280;11115;46.038;14.612;2024-02-21T03:54:29;99347.34;;;2.23;100.00
21902;BME280;11115;46.038;14.612;2024-02-21T03:57:01;99349.00;;;2.12;100.00
21902;BME280;11115;46.038;14.612;2024-02-21T03:59:35;99343.91;;;2.28;100.00
21902;BME280;11115;46.038;14.612;2024-02-21T04:02:13;99328.50;;;2.45;100.00
21902;BME280;11115;46.038;14.612;2024-02-21T04:04:46;99344.44;;;2.36;100.00
21902;BME280;11115;46.038;14.612;2024-02-21T04:07:18;99351.88;;;2.29;100.00
21902;BME280;11115;46.038;14.612;2024-02-21T04:10:01;99353.69;;;2.35;100.00
21902;BME280;11115;46.038;14.612;2024-02-21T04:12:35;99336.19;;;2.13;100.00
21902;BME280;11115;46.038;14.612;2024-02-21T04:15:12;99293.25;;;1.90;100.00
21902;BME280;11115;46.038;14.612;2024-02-21T04:17:46;99378.34;;;2.29;100.00
21902;BME280;11115;46.038;14.612;2024-02-21T04:20:23;99369.47;;;2.33;100.00
21902;BME280;11115;46.038;14.612;2024-02-21T04:22:57;99364.13;;;2.50;100.00
21902;BME280;11115;46.038;14.612;2024-02-21T04:25:35;99358.16;;;2.18;100.00
21902;BME280;11115;46.038;14.612;2024-02-21T04:28:13;99356.56;;;2.10;100.00
21902;BME280;11115;46.038;14.612;2024-02-21T04:30:49;99356.56;;;2.10;100.00
21902;BME280;11115;46.038;14.612;2024-02-21T04:33:32;99348.22;;;2.35;100.00
21902;BME280;11115;46.038;14.612;2024-02-21T04:36:04;99339.91;;;2.42;100.00
21902;BME280;11115;46.038;14.612;2024-02-21T04:38:40;99339.03;;;2.18;100.00
21902;BME280;11115;46.038;14.612;2024-02-21T04:41:20;99328.13;;;1.88;100.00
21902;BME280;11115;46.038;14.612;2024-02-21T04:43:54;99309.84;;;1.77;100.00
21902;BME280;11115;46.038;14.612;2024-02-21T04:46:31;99332.16;;;2.16;100.00
21902;BME280;11115;46.038;14.612;2024-02-21T04:49:11;99334.22;;;2.43;100.00
21902;BME280;11115;46.038;14.612;2024-02-21T04:51:43;99320.56;;;2.32;100.00
21902;BME280;11115;46.038;14.612;2024-02-21T04:54:12;99331.34;;;2.27;100.00
21902;BME280;11115;46.038;14.612;2024-02-21T04:56:43;99335.84;;;2.21;100.00
21902;BME280;11115;46.038;14.612;2024-02-21T04:59:12;99331.75;;;2.12;100.00
21902;BME280;11115;46.038;14.612;2024-02-21T05:01:41;99325.06;;;1.85;100.00
21902;BME280;11115;46.038;14.612;2024-02-21T05:04:14;99329.72;;;1.66;100.00
21902;BME280;11115;46.038;14.612;2024-02-21T05:06:49;99331.72;;;1.59;100.00
21902;BME280;11115;46.038;14.612;2024-02-21T05:09:23;99341.59;;;1.71;100.00
21902;BME280;11115;46.038;14.612;2024-02-21T05:11:53;99345.91;;;1.79;100.00
21902;BME280;11115;46.038;14.612;2024-02-21T05:14:28;99334.53;;;1.82;100.00
21902;BME280;11115;46.038;14.612;2024-02-21T05:16:58;99342.31;;;1.97;100.00
21902;BME280;11115;46.038;14.612;2024-02-21T05:19:31;99327.00;;;1.96;100.00
21902;BME280;11115;46.038;14.612;2024-02-21T05:22:05;99355.59;;;2.05;100.00
21902;BME280;11115;46.038;14.612;2024-02-21T05:24:38;99334.91;;;1.86;100.00
21902;BME280;11115;46.038;14.612;2024-02-21T05:27:08;99306.56;;;1.57;100.00
21902;BME280;11115;46.038;14.612;2024-02-21T05:29:40;99377.72;;;1.55;100.00
21902;BME280;11115;46.038;14.612;2024-02-21T05:32:13;99382.69;;;1.76;100.00
21902;BME280;11115;46.038;14.612;2024-02-21T05:34:48;99369.72;;;2.02;100.00
21902;BME280;11115;46.038;14.612;2024-02-21T05:37:29;99372.13;;;2.10;100.00
21902;BME280;11115;46.038;14.612;2024-02-21T05:40:01;99362.66;;;2.24;100.00
21902;BME280;11115;46.038;14.612;2024-02-21T05:42:36;99363.38;;;2.20;100.00
21902;BME280;11115;46.038;14.612;2024-02-21T05:45:07;99360.41;;;2.21;100.00
21902;BME280;11115;46.038;14.612;2024-02-21T05:47:44;99359.63;;;2.32;100.00
21902;BME280;11115;46.038;14.612;2024-02-21T05:50:23;99357.84;;;2.50;100.00
21902;BME280;11115;46.038;14.612;2024-02-21T05:52:56;99362.94;;;2.34;100.00
21902;BME280;11115;46.038;14.612;2024-02-21T05:55:29;99359.41;;;2.57;100.00
21902;BME280;11115;46.038;14.612;2024-02-21T05:58:07;99371.63;;;2.43;100.00
21902;BME280;11115;46.038;14.612;2024-02-21T06:00:45;99360.53;;;2.26;100.00
21902;BME280;11115;46.038;14.612;2024-02-21T06:03:17;99374.41;;;2.13;100.00
21902;BME280;11115;46.038;14.612;2024-02-21T06:05:51;99372.78;;;2.35;100.00
21902;BME280;11115;46.038;14.612;2024-02-21T06:08:24;99377.91;;;2.32;100.00
21902;BME280;11115;46.038;14.612;2024-02-21T06:10:56;99364.00;;;2.33;100.00
21902;BME280;11115;46.038;14.612;2024-02-21T06:13:33;99371.72;;;2.48;100.00
21902;BME280;11115;46.038;14.612;2024-02-21T06:16:14;99378.41;;;2.52;100.00
21902;BME280;11115;46.038;14.612;2024-02-21T06:18:53;99375.34;;;2.72;100.00
21902;BME280;11115;46.038;14.612;2024-02-21T06:21:29;99367.25;;;2.65;100.00
21902;BME280;11115;46.038;14.612;2024-02-21T06:24:02;99370.94;;;2.59;100.00
21902;BME280;11115;46.038;14.612;2024-02-21T06:26:40;99366.31;;;2.60;100.00
21902;BME280;11115;46.038;14.612;2024-02-21T06:29:11;99369.28;;;2.58;100.00
21902;BME280;11115;46.038;14.612;2024-02-21T06:31:48;99360.84;;;2.60;100.00
21902;BME280;11115;46.038;14.612;2024-02-21T06:34:20;99389.81;;;2.61;100.00
21902;BME280;11115;46.038;14.612;2024-02-21T06:37:06;99384.81;;;2.69;100.00
21902;BME280;11115;46.038;14.612;2024-02-21T06:39:39;99392.09;;;2.76;100.00
21902;BME280;11115;46.038;14.612;2024-02-21T06:42:11;99373.81;;;2.76;100.00
21902;BME280;11115;46.038;14.612;2024-02-21T06:44:45;99394.59;;;2.89;100.00
21902;BME280;11115;46.038;14.612;2024-02-21T06:47:19;99387.34;;;2.94;100.00
21902;BME280;11115;46.038;14.612;2024-02-21T06:49:49;99388.66;;;2.80;100.00
21902;BME280;11115;46.038;14.612;2024-02-21T06:52:20;99391.63;;;3.02;100.00
21902;BME280;11115;46.038;14.612;2024-02-21T06:54:56;99380.59;;;2.97;100.00
21902;BME280;11115;46.038;14.612;2024-02-21T06:57:25;99400.06;;;3.24;100.00
21902;BME280;11115;46.038;14.612;2024-02-21T06:59:58;99397.91;;;3.26;100.00
21902;BME280;11115;46.038;14.612;2024-02-21T07:02:29;99400.28;;;3.22;100.00
21902;BME280;11115;46.038;14.612;2024-02-21T07:04:58;99402.44;;;3.20;100.00
21902;BME280;11115;46.038;14.612;2024-02-21T07:07:33;99403.75;;;3.18;100.00
21902;BME280;11115;46.038;14.612;2024-02-21T07:10:18;99401.13;;;3.23;100.00
21902;BME280;11115;46.038;14.612;2024-02-21T07:12:53;99408.50;;;3.34;100.00
21902;BME280;11115;46.038;14.612;2024-02-21T07:15:31;99409.91;;;3.25;100.00
21902;BME280;11115;46.038;14.612;2024-02-21T07:18:04;99407.66;;;2.87;100.00
21902;BME280;11115;46.038;14.612;2024-02-21T07:20:38;99410.75;;;2.79;100.00
21902;BME280;11115;46.038;14.612;2024-02-21T07:23:16;99404.25;;;2.91;100.00
21902;BME280;11115;46.038;14.612;2024-02-21T07:25:46;99389.25;;;2.94;100.00
21902;BME280;11115;46.038;14.612;2024-02-21T07:28:24;99374.03;;;2.86;100.00
21902;BME280;11115;46.038;14.612;2024-02-21T07:31:02;99396.75;;;3.10;100.00
21902;BME280;11115;46.038;14.612;2024-02-21T07:33:35;99401.97;;;3.23;100.00
21902;BME280;11115;46.038;14.612;2024-02-21T07:36:10;99398.38;;;3.23;100.00
21902;BME280;11115;46.038;14.612;2024-02-21T07:38:42;99381.28;;;3.04;100.00
21902;BME280;11115;46.038;14.612;2024-02-21T07:41:12;99393.88;;;3.28;100.00
21902;BME280;11115;46.038;14.612;2024-02-21T07:43:45;99360.34;;;3.21;100.00
21902;BME280;11115;46.038;14.612;2024-02-21T07:46:18;99396.94;;;3.44;100.00
21902;BME280;11115;46.038;14.612;2024-02-21T07:48:48;99389.13;;;3.35;100.00
21902;BME280;11115;46.038;14.612;2024-02-21T07:51:28;99394.47;;;3.30;100.00
21902;BME280;11115;46.038;14.612;2024-02-21T07:54:05;99389.94;;;3.48;100.00
21902;BME280;11115;46.038;14.612;2024-02-21T07:56:43;99394.53;;;3.59;100.00
21902;BME280;11115;46.038;14.612;2024-02-21T07:59:23;99390.13;;;3.70;100.00
21902;BME280;11115;46.038;14.612;2024-02-21T08:01:59;99383.59;;;3.59;100.00
21902;BME280;11115;46.038;14.612;2024-02-21T08:04:43;99386.84;;;3.84;100.00
21902;BME280;11115;46.038;14.612;2024-02-21T08:07:25;99394.34;;;3.89;100.00
21902;BME280;11115;46.038;14.612;2024-02-21T08:09:56;99391.78;;;3.99;100.00
21902;BME280;11115;46.038;14.612;2024-02-21T08:12:38;99392.97;;;4.03;100.00
21902;BME280;11115;46.038;14.612;2024-02-21T08:15:15;99395.13;;;4.01;100.00
21902;BME280;11115;46.038;14.612;2024-02-21T08:17:49;99405.03;;;4.19;100.00
21902;BME280;11115;46.038;14.612;2024-02-21T08:20:23;99366.69;;;4.19;100.00
21902;BME280;11115;46.038;14.612;2024-02-21T08:22:59;99383.34;;;4.63;100.00
21902;BME280;11115;46.038;14.612;2024-02-21T08:25:33;99387.44;;;4.77;100.00
21902;BME280;11115;46.038;14.612;2024-02-21T08:28:05;99391.91;;;5.00;100.00
21902;BME280;11115;46.038;14.612;2024-02-21T08:30:44;99388.28;;;5.33;100.00
21902;BME280;11115;46.038;14.612;2024-02-21T08:33:19;99390.47;;;5.53;100.00
21902;BME280;11115;46.038;14.612;2024-02-21T08:35:51;99371.19;;;5.26;100.00
21902;BME280;11115;46.038;14.612;2024-02-21T08:38:25;99384.34;;;5.24;100.00
21902;BME280;11115;46.038;14.612;2024-02-21T08:41:04;99387.09;;;5.07;100.00
21902;BME280;11115;46.038;14.612;2024-02-21T08:43:48;99389.41;;;5.15;100.00
21902;BME280;11115;46.038;14.612;2024-02-21T08:46:26;99378.94;;;5.51;100.00
21902;BME280;11115;46.038;14.612;2024-02-21T08:48:59;99360.22;;;5.47;100.00
21902;BME280;11115;46.038;14.612;2024-02-21T08:51:40;99367.28;;;5.60;100.00
21902;BME280;11115;46.038;14.612;2024-02-21T08:54:13;99362.66;;;5.88;100.00
21902;BME280;11115;46.038;14.612;2024-02-21T08:56:53;99357.63;;;6.01;100.00
21902;BME280;11115;46.038;14.612;2024-02-21T08:59:27;99362.81;;;6.25;100.00
21902;BME280;11115;46.038;14.612;2024-02-21T09:02:08;99352.00;;;6.45;100.00
21902;BME280;11115;46.038;14.612;2024-02-21T09:04:39;99356.31;;;6.36;100.00
21902;BME280;11115;46.038;14.612;2024-02-21T09:07:12;99355.03;;;6.76;100.00
21902;BME280;11115;46.038;14.612;2024-02-21T09:09:44;99354.44;;;6.74;100.00
21902;BME280;11115;46.038;14.612;2024-02-21T09:12:18;99325.91;;;6.80;100.00
21902;BME280;11115;46.038;14.612;2024-02-21T09:15:00;99318.94;;;7.09;100.00
21902;BME280;11115;46.038;14.612;2024-02-21T09:17:36;99338.66;;;7.38;100.00
21902;BME280;11115;46.038;14.612;2024-02-21T09:20:15;99340.63;;;7.48;100.00
21902;BME280;11115;46.038;14.612;2024-02-21T09:22:53;99331.88;;;7.66;100.00
21902;BME280;11115;46.038;14.612;2024-02-21T09:25:28;99325.25;;;7.57;100.00
21902;BME280;11115;46.038;14.612;2024-02-21T09:28:06;99326.97;;;7.73;100.00
21902;BME280;11115;46.038;14.612;2024-02-21T09:30:41;99326.22;;;8.08;100.00
21902;BME280;11115;46.038;14.612;2024-02-21T09:33:26;99325.41;;;8.03;100.00
21902;BME280;11115;46.038;14.612;2024-02-21T09:36:06;99313.59;;;8.22;100.00
21902;BME280;11115;46.038;14.612;2024-02-21T09:38:36;99309.50;;;8.35;100.00
21902;BME280;11115;46.038;14.612;2024-02-21T09:41:18;99310.00;;;8.27;100.00
21902;BME280;11115;46.038;14.612;2024-02-21T09:43:53;99309.78;;;8.34;100.00
21902;BME280;11115;46.038;14.612;2024-02-21T09:49:35;99312.25;;;8.30;100.00
21902;BME280;11115;46.038;14.612;2024-02-21T09:52:10;99300.66;;;8.94;100.00
21902;BME280;11115;46.038;14.612;2024-02-21T09:54:43;99303.09;;;9.16;100.00
21902;BME280;11115;46.038;14.612;2024-02-21T09:57:21;99295.88;;;9.25;100.00
21902;BME280;11115;46.038;14.612;2024-02-21T09:59:56;99294.47;;;9.38;100.00
21902;BME280;11115;46.038;14.612;2024-02-21T10:02:39;99291.84;;;8.92;100.00
21902;BME280;11115;46.038;14.612;2024-02-21T10:05:08;99285.63;;;9.46;100.00
21902;BME280;11115;46.038;14.612;2024-02-21T10:07:38;99288.28;;;9.61;100.00
21902;BME280;11115;46.038;14.612;2024-02-21T10:10:10;99292.13;;;9.70;100.00
21902;BME280;11115;46.038;14.612;2024-02-21T10:12:53;99279.56;;;9.93;100.00
21902;BME280;11115;46.038;14.612;2024-02-21T10:15:37;99286.03;;;10.18;100.00
21902;BME280;11115;46.038;14.612;2024-02-21T10:18:10;99231.91;;;10.12;100.00
21902;BME280;11115;46.038;14.612;2024-02-21T10:20:41;99281.50;;;10.71;100.00
21902;BME280;11115;46.038;14.612;2024-02-21T10:23:11;99277.44;;;10.63;100.00
21902;BME280;11115;46.038;14.612;2024-02-21T10:25:45;99279.38;;;10.63;100.00
21902;BME280;11115;46.038;14.612;2024-02-21T10:28:18;99282.25;;;10.82;100.00
21902;BME280;11115;46.038;14.612;2024-02-21T10:30:55;99267.00;;;10.84;100.00
21902;BME280;11115;46.038;14.612;2024-02-21T10:33:27;99274.44;;;11.13;100.00
21902;BME280;11115;46.038;14.612;2024-02-21T10:36:12;99261.88;;;10.97;100.00
21902;BME280;11115;46.038;14.612;2024-02-21T10:38:43;99272.16;;;11.44;100.00
21902;BME280;11115;46.038;14.612;2024-02-21T10:41:14;99267.53;;;11.39;100.00
21902;BME280;11115;46.038;14.612;2024-02-21T10:43:52;99264.66;;;11.68;100.00
21902;BME280;11115;46.038;14.612;2024-02-21T10:46:35;99256.16;;;11.83;100.00
21902;BME280;11115;46.038;14.612;2024-02-21T10:49:26;99247.03;;;11.83;100.00
21902;BME280;11115;46.038;14.612;2024-02-21T10:54:56;99234.19;;;12.25;100.00
21902;BME280;11115;46.038;14.612;2024-02-21T10:57:34;99225.63;;;12.40;100.00
21902;BME280;11115;46.038;14.612;2024-02-21T11:00:06;99215.88;;;12.89;100.00
21902;BME280;11115;46.038;14.612;2024-02-21T11:02:44;99203.41;;;12.86;100.00
21902;BME280;11115;46.038;14.612;2024-02-21T11:05:28;99184.63;;;12.37;100.00
21902;BME280;11115;46.038;14.612;2024-02-21T11:08:07;99202.66;;;13.27;100.00
21902;BME280;11115;46.038;14.612;2024-02-21T11:10:45;99175.16;;;13.39;100.00
21902;BME280;11115;46.038;14.612;2024-02-21T11:13:17;99173.72;;;13.55;100.00
21902;BME280;11115;46.038;14.612;2024-02-21T11:15:54;99169.19;;;13.46;100.00
21902;BME280;11115;46.038;14.612;2024-02-21T11:18:28;99149.16;;;13.71;100.00
21902;BME280;11115;46.038;14.612;2024-02-21T11:21:01;99148.94;;;14.04;100.00
21902;BME280;11115;46.038;14.612;2024-02-21T11:23:32;99123.53;;;13.60;100.00
21902;BME280;11115;46.038;14.612;2024-02-21T11:26:09;99135.44;;;13.39;100.00
21902;BME280;11115;46.038;14.612;2024-02-21T11:29:01;99126.91;;;13.71;100.00
21902;BME280;11115;46.038;14.612;2024-02-21T11:31:49;99122.50;;;14.15;100.00
21902;BME280;11115;46.038;14.612;2024-02-21T11:34:24;99107.38;;;14.52;100.00
21902;BME280;11115;46.038;14.612;2024-02-21T11:37:00;99104.94;;;14.59;100.00
21902;BME280;11115;46.038;14.612;2024-02-21T11:39:37;99094.91;;;14.49;100.00
21902;BME280;11115;46.038;14.612;2024-02-21T11:42:10;99077.88;;;14.91;100.00
21902;BME280;11115;46.038;14.612;2024-02-21T11:44:43;99079.34;;;14.48;100.00
21902;BME280;11115;46.038;14.612;2024-02-21T11:47:18;99073.28;;;14.86;100.00
21902;BME280;11115;46.038;14.612;2024-02-21T11:49:53;99062.66;;;14.97;100.00
21902;BME280;11115;46.038;14.612;2024-02-21T11:52:25;99056.78;;;15.15;100.00
21902;BME280;11115;46.038;14.612;2024-02-21T11:55:06;99061.06;;;14.65;100.00
21902;BME280;11115;46.038;14.612;2024-02-21T11:57:39;99046.41;;;14.99;100.00
21902;BME280;11115;46.038;14.612;2024-02-21T12:00:18;99033.53;;;15.37;100.00
21902;BME280;11115;46.038;14.612;2024-02-21T12:02:52;99030.59;;;15.77;100.00
21902;BME280;11115;46.038;14.612;2024-02-21T12:05:28;99017.69;;;16.66;100.00
21902;BME280;11115;46.038;14.612;2024-02-21T12:08:00;99022.78;;;16.17;100.00
21902;BME280;11115;46.038;14.612;2024-02-21T12:10:36;99013.25;;;16.65;100.00
21902;BME280;11115;46.038;14.612;2024-02-21T12:13:10;99014.47;;;18.10;100.00
21902;BME280;11115;46.038;14.612;2024-02-21T12:15:40;99001.91;;;17.83;100.00
21902;BME280;11115;46.038;14.612;2024-02-21T12:18:14;98999.06;;;18.73;100.00
21902;BME280;11115;46.038;14.612;2024-02-21T12:20:49;98997.59;;;18.31;100.00
21902;BME280;11115;46.038;14.612;2024-02-21T12:23:20;98934.78;;;17.95;100.00
21902;BME280;11115;46.038;14.612;2024-02-21T12:25:54;98983.84;;;19.11;98.10
21902;BME280;11115;46.038;14.612;2024-02-21T12:28:30;98990.31;;;19.39;100.00
21902;BME280;11115;46.038;14.612;2024-02-21T12:31:04;98975.19;;;19.84;81.99
21902;BME280;11115;46.038;14.612;2024-02-21T12:33:44;98975.91;;;20.25;85.71
21902;BME280;11115;46.038;14.612;2024-02-21T12:36:14;98973.00;;;20.84;70.57
21902;BME280;11115;46.038;14.612;2024-02-21T12:38:50;98901.31;;;21.13;75.81
21902;BME280;11115;46.038;14.612;2024-02-21T12:41:23;98920.94;;;22.56;73.54
21902;BME280;11115;46.038;14.612;2024-02-21T12:43:53;98949.38;;;22.93;70.50
21902;BME280;11115;46.038;14.612;2024-02-21T12:46:31;98948.41;;;23.68;64.29
21902;BME280;11115;46.038;14.612;2024-02-21T12:49:04;98952.34;;;23.94;56.99
21902;BME280;11115;46.038;14.612;2024-02-21T12:51:36;98954.00;;;23.65;55.25
21902;BME280;11115;46.038;14.612;2024-02-21T12:54:19;98940.31;;;24.89;52.99
21902;BME280;11115;46.038;14.612;2024-02-21T12:56:57;98942.53;;;24.65;53.66
21902;BME280;11115;46.038;14.612;2024-02-21T12:59:39;98936.47;;;24.22;53.71
21902;BME280;11115;46.038;14.612;2024-02-21T13:02:11;98935.22;;;24.57;55.07
21902;BME280;11115;46.038;14.612;2024-02-21T13:04:46;98926.44;;;24.69;49.56
21902;BME280;11115;46.038;14.612;2024-02-21T13:07:23;98928.59;;;24.94;50.92
21902;BME280;11115;46.038;14.612;2024-02-21T13:09:58;98916.91;;;25.71;49.97
21902;BME280;11115;46.038;14.612;2024-02-21T13:12:33;98915.19;;;25.53;50.37
21902;BME280;11115;46.038;14.612;2024-02-21T13:15:15;98901.69;;;24.59;50.10
21902;BME280;11115;46.038;14.612;2024-02-21T13:17:47;98902.50;;;24.63;50.12
21902;BME280;11115;46.038;14.612;2024-02-21T13:20:30;98892.00;;;24.60;53.20
21902;BME280;11115;46.038;14.612;2024-02-21T13:23:06;98885.31;;;24.31;53.22
21902;BME280;11115;46.038;14.612;2024-02-21T13:25:43;98873.91;;;24.28;52.55
21902;BME280;11115;46.038;14.612;2024-02-21T13:28:15;98843.91;;;25.29;48.57
21902;BME280;11115;46.038;14.612;2024-02-21T13:30:49;98857.03;;;26.01;47.67
21902;BME280;11115;46.038;14.612;2024-02-21T13:33:20;98865.56;;;27.01;45.14
21902;BME280;11115;46.038;14.612;2024-02-21T13:35:55;98872.28;;;27.43;41.49
21902;BME280;11115;46.038;14.612;2024-02-21T13:38:27;98870.88;;;28.87;42.23